sensor_id;sensor_type;location;lat;lon;timestamp;P1;durP1;ratioP1;P2;durP2;ratioP2
33421;SDS011;19763;55.798;37.782;2022-09-03T00:01:17;3.45;;;1.60;;
33421;SDS011;19763;55.798;37.782;2022-09-03T00:03:54;3.35;;;1.67;;
33421;SDS011;19763;55.798;37.782;2022-09-03T00:06:29;1.70;;;1.60;;
33421;SDS011;19763;55.798;37.782;2022-09-03T00:09:04;1.73;;;1.40;;
33421;SDS011;19763;55.798;37.782;2022-09-03T00:14:46;1.73;;;1.50;;
33421;SDS011;19763;55.798;37.782;2022-09-03T00:19:54;4.35;;;1.90;;
33421;SDS011;19763;55.798;37.782;2022-09-03T00:22:28;1.90;;;1.48;;
33421;SDS011;19763;55.798;37.782;2022-09-03T00:24:58;2.42;;;1.40;;
33421;SDS011;19763;55.798;37.782;2022-09-03T00:27:29;2.35;;;1.45;;
33421;SDS011;19763;55.798;37.782;2022-09-03T00:35:04;2.15;;;1.35;;
33421;SDS011;19763;55.798;37.782;2022-09-03T00:37:33;2.75;;;1.60;;
33421;SDS011;19763;55.798;37.782;2022-09-03T00:39:59;1.45;;;1.20;;
33421;SDS011;19763;55.798;37.782;2022-09-03T00:42:39;1.58;;;1.30;;
33421;SDS011;19763;55.798;37.782;2022-09-03T00:48:23;2.38;;;1.55;;
33421;SDS011;19763;55.798;37.782;2022-09-03T00:53:31;1.60;;;1.50;;
33421;SDS011;19763;55.798;37.782;2022-09-03T00:56:07;2.50;;;1.33;;
33421;SDS011;19763;55.798;37.782;2022-09-03T00:58:53;5.07;;;1.70;;
33421;SDS011;19763;55.798;37.782;2022-09-03T01:04:34;2.92;;;1.40;;
33421;SDS011;19763;55.798;37.782;2022-09-03T01:12:42;3.38;;;1.55;;
33421;SDS011;19763;55.798;37.782;2022-09-03T01:15:14;3.83;;;1.58;;
33421;SDS011;19763;55.798;37.782;2022-09-03T01:20:52;3.55;;;1.40;;
33421;SDS011;19763;55.798;37.782;2022-09-03T01:26:14;3.78;;;1.30;;
33421;SDS011;19763;55.798;37.782;2022-09-03T01:31:36;5.32;;;1.65;;
33421;SDS011;19763;55.798;37.782;2022-09-03T01:50:50;2.05;;;1.67;;
33421;SDS011;19763;55.798;37.782;2022-09-03T01:58:39;2.67;;;1.33;;
33421;SDS011;19763;55.798;37.782;2022-09-03T02:01:28;2.53;;;1.40;;
33421;SDS011;19763;55.798;37.782;2022-09-03T02:03:57;3.22;;;1.50;;
33421;SDS011;19763;55.798;37.782;2022-09-03T02:06:26;1.90;;;1.58;;
33421;SDS011;19763;55.798;37.782;2022-09-03T02:08:53;2.83;;;1.35;;
33421;SDS011;19763;55.798;37.782;2022-09-03T02:11:19;2.00;;;1.30;;
33421;SDS011;19763;55.798;37.782;2022-09-03T02:13:46;2.15;;;1.40;;
33421;SDS011;19763;55.798;37.782;2022-09-03T02:16:17;2.75;;;1.30;;
33421;SDS011;19763;55.798;37.782;2022-09-03T02:19:02;1.50;;;1.40;;
33421;SDS011;19763;55.798;37.782;2022-09-03T02:21:37;1.63;;;1.40;;
33421;SDS011;19763;55.798;37.782;2022-09-03T02:24:05;2.03;;;1.50;;
33421;SDS011;19763;55.798;37.782;2022-09-03T02:26:33;4.55;;;1.70;;
33421;SDS011;19763;55.798;37.782;2022-09-03T02:29:00;1.80;;;1.40;;
33421;SDS011;19763;55.798;37.782;2022-09-03T02:31:27;4.05;;;1.70;;
33421;SDS011;19763;55.798;37.782;2022-09-03T02:33:53;1.85;;;1.63;;
33421;SDS011;19763;55.798;37.782;2022-09-03T02:36:23;3.25;;;1.60;;
33421;SDS011;19763;55.798;37.782;2022-09-03T02:38:52;2.25;;;1.73;;
33421;SDS011;19763;55.798;37.782;2022-09-03T02:41:18;3.17;;;1.80;;
33421;SDS011;19763;55.798;37.782;2022-09-03T02:43:48;2.20;;;1.70;;
33421;SDS011;19763;55.798;37.782;2022-09-03T02:46:53;1.60;;;1.50;;
33421;SDS011;19763;55.798;37.782;2022-09-03T02:49:34;4.38;;;1.73;;
33421;SDS011;19763;55.798;37.782;2022-09-03T02:52:09;1.88;;;1.77;;
33421;SDS011;19763;55.798;37.782;2022-09-03T02:54:36;2.33;;;1.88;;
33421;SDS011;19763;55.798;37.782;2022-09-03T02:57:06;2.58;;;1.70;;
33421;SDS011;19763;55.798;37.782;2022-09-03T02:59:33;2.80;;;1.83;;
33421;SDS011;19763;55.798;37.782;2022-09-03T03:02:00;2.20;;;1.80;;
33421;SDS011;19763;55.798;37.782;2022-09-03T03:04:26;6.38;;;1.88;;
33421;SDS011;19763;55.798;37.782;2022-09-03T03:06:52;2.58;;;1.65;;
33421;SDS011;19763;55.798;37.782;2022-09-03T03:09:18;2.85;;;1.70;;
33421;SDS011;19763;55.798;37.782;2022-09-03T03:11:43;2.83;;;2.30;;
33421;SDS011;19763;55.798;37.782;2022-09-03T03:14:09;2.60;;;2.20;;
33421;SDS011;19763;55.798;37.782;2022-09-03T03:16:35;2.10;;;1.90;;
33421;SDS011;19763;55.798;37.782;2022-09-03T03:19:01;3.90;;;1.80;;
33421;SDS011;19763;55.798;37.782;2022-09-03T03:21:26;2.50;;;1.77;;
33421;SDS011;19763;55.798;37.782;2022-09-03T03:23:52;2.28;;;2.00;;
33421;SDS011;19763;55.798;37.782;2022-09-03T03:26:19;1.75;;;1.42;;
33421;SDS011;19763;55.798;37.782;2022-09-03T03:28:46;2.15;;;1.80;;
33421;SDS011;19763;55.798;37.782;2022-09-03T03:31:15;2.40;;;1.90;;
33421;SDS011;19763;55.798;37.782;2022-09-03T03:33:43;2.17;;;1.83;;
33421;SDS011;19763;55.798;37.782;2022-09-03T03:36:12;3.08;;;1.88;;
33421;SDS011;19763;55.798;37.782;2022-09-03T03:38:39;2.83;;;2.05;;
33421;SDS011;19763;55.798;37.782;2022-09-03T03:41:24;3.22;;;1.85;;
33421;SDS011;19763;55.798;37.782;2022-09-03T03:43:52;3.30;;;1.88;;
33421;SDS011;19763;55.798;37.782;2022-09-03T03:46:19;4.40;;;2.70;;
33421;SDS011;19763;55.798;37.782;2022-09-03T03:48:46;2.40;;;2.13;;
33421;SDS011;19763;55.798;37.782;2022-09-03T03:51:13;2.10;;;1.83;;
33421;SDS011;19763;55.798;37.782;2022-09-03T03:53:38;2.58;;;2.20;;
33421;SDS011;19763;55.798;37.782;2022-09-03T03:56:05;4.13;;;2.10;;
33421;SDS011;19763;55.798;37.782;2022-09-03T03:58:34;4.22;;;1.92;;
33421;SDS011;19763;55.798;37.782;2022-09-03T04:01:03;2.20;;;1.77;;
33421;SDS011;19763;55.798;37.782;2022-09-03T04:03:31;2.38;;;2.17;;
33421;SDS011;19763;55.798;37.782;2022-09-03T04:05:58;2.50;;;2.10;;
33421;SDS011;19763;55.798;37.782;2022-09-03T04:08:28;2.22;;;1.83;;
33421;SDS011;19763;55.798;37.782;2022-09-03T04:10:57;2.75;;;2.30;;
33421;SDS011;19763;55.798;37.782;2022-09-03T04:13:27;3.28;;;2.45;;
33421;SDS011;19763;55.798;37.782;2022-09-03T04:16:04;2.08;;;1.85;;
33421;SDS011;19763;55.798;37.782;2022-09-03T04:18:33;3.70;;;2.10;;
33421;SDS011;19763;55.798;37.782;2022-09-03T04:21:03;3.13;;;1.90;;
33421;SDS011;19763;55.798;37.782;2022-09-03T04:23:31;2.20;;;1.92;;
33421;SDS011;19763;55.798;37.782;2022-09-03T04:25:58;3.95;;;2.22;;
33421;SDS011;19763;55.798;37.782;2022-09-03T04:28:24;2.85;;;2.00;;
33421;SDS011;19763;55.798;37.782;2022-09-03T04:30:50;2.40;;;2.20;;
33421;SDS011;19763;55.798;37.782;2022-09-03T04:33:16;3.13;;;2.08;;
33421;SDS011;19763;55.798;37.782;2022-09-03T04:35:42;3.28;;;1.95;;
33421;SDS011;19763;55.798;37.782;2022-09-03T04:38:08;4.13;;;2.55;;
33421;SDS011;19763;55.798;37.782;2022-09-03T04:40:35;4.38;;;1.92;;
33421;SDS011;19763;55.798;37.782;2022-09-03T04:43:01;2.42;;;2.22;;
33421;SDS011;19763;55.798;37.782;2022-09-03T04:45:27;4.50;;;2.50;;
33421;SDS011;19763;55.798;37.782;2022-09-03T04:48:00;2.75;;;2.28;;
33421;SDS011;19763;55.798;37.782;2022-09-03T04:50:27;3.67;;;2.40;;
33421;SDS011;19763;55.798;37.782;2022-09-03T04:52:54;3.58;;;2.22;;
33421;SDS011;19763;55.798;37.782;2022-09-03T04:55:24;3.13;;;2.28;;
33421;SDS011;19763;55.798;37.782;2022-09-03T04:57:50;2.60;;;2.28;;
33421;SDS011;19763;55.798;37.782;2022-09-03T05:00:16;9.27;;;2.67;;
33421;SDS011;19763;55.798;37.782;2022-09-03T05:02:43;3.03;;;2.50;;
33421;SDS011;19763;55.798;37.782;2022-09-03T05:05:13;4.20;;;2.53;;
33421;SDS011;19763;55.798;37.782;2022-09-03T05:07:39;3.22;;;2.58;;
33421;SDS011;19763;55.798;37.782;2022-09-03T05:10:06;4.30;;;2.40;;
33421;SDS011;19763;55.798;37.782;2022-09-03T05:12:33;3.33;;;2.50;;
33421;SDS011;19763;55.798;37.782;2022-09-03T05:14:59;2.90;;;2.28;;
33421;SDS011;19763;55.798;37.782;2022-09-03T05:17:28;3.75;;;2.58;;
33421;SDS011;19763;55.798;37.782;2022-09-03T05:19:53;3.45;;;2.58;;
33421;SDS011;19763;55.798;37.782;2022-09-03T05:22:19;3.17;;;2.33;;
33421;SDS011;19763;55.798;37.782;2022-09-03T05:24:48;3.08;;;2.42;;
33421;SDS011;19763;55.798;37.782;2022-09-03T05:27:14;5.38;;;2.40;;
33421;SDS011;19763;55.798;37.782;2022-09-03T05:29:43;5.25;;;2.30;;
33421;SDS011;19763;55.798;37.782;2022-09-03T05:32:09;2.22;;;2.03;;
33421;SDS011;19763;55.798;37.782;2022-09-03T05:34:36;2.78;;;2.47;;
33421;SDS011;19763;55.798;37.782;2022-09-03T05:37:02;2.95;;;2.30;;
33421;SDS011;19763;55.798;37.782;2022-09-03T05:39:28;2.90;;;2.28;;
33421;SDS011;19763;55.798;37.782;2022-09-03T05:41:54;3.25;;;2.40;;
33421;SDS011;19763;55.798;37.782;2022-09-03T05:44:19;2.25;;;2.03;;
33421;SDS011;19763;55.798;37.782;2022-09-03T05:46:48;3.92;;;2.45;;
33421;SDS011;19763;55.798;37.782;2022-09-03T05:49:15;3.95;;;2.33;;
33421;SDS011;19763;55.798;37.782;2022-09-03T05:51:41;2.80;;;2.20;;
33421;SDS011;19763;55.798;37.782;2022-09-03T05:54:08;3.60;;;2.58;;
33421;SDS011;19763;55.798;37.782;2022-09-03T05:56:35;4.03;;;2.17;;
33421;SDS011;19763;55.798;37.782;2022-09-03T05:59:04;6.32;;;2.20;;
33421;SDS011;19763;55.798;37.782;2022-09-03T06:01:37;4.28;;;2.30;;
33421;SDS011;19763;55.798;37.782;2022-09-03T06:04:05;3.60;;;2.10;;
33421;SDS011;19763;55.798;37.782;2022-09-03T06:06:33;2.70;;;1.92;;
33421;SDS011;19763;55.798;37.782;2022-09-03T06:09:01;2.60;;;2.40;;
33421;SDS011;19763;55.798;37.782;2022-09-03T06:13:59;2.67;;;1.80;;
33421;SDS011;19763;55.798;37.782;2022-09-03T06:16:26;5.60;;;2.13;;
33421;SDS011;19763;55.798;37.782;2022-09-03T06:18:55;5.68;;;2.05;;
33421;SDS011;19763;55.798;37.782;2022-09-03T06:21:21;5.07;;;2.80;;
33421;SDS011;19763;55.798;37.782;2022-09-03T06:23:51;4.13;;;2.15;;
33421;SDS011;19763;55.798;37.782;2022-09-03T06:26:18;5.28;;;2.20;;
33421;SDS011;19763;55.798;37.782;2022-09-03T06:28:45;3.55;;;2.45;;
33421;SDS011;19763;55.798;37.782;2022-09-03T06:31:14;4.10;;;2.28;;
33421;SDS011;19763;55.798;37.782;2022-09-03T06:33:41;3.22;;;2.40;;
33421;SDS011;19763;55.798;37.782;2022-09-03T06:36:12;4.40;;;2.50;;
33421;SDS011;19763;55.798;37.782;2022-09-03T06:38:40;4.38;;;2.20;;
33421;SDS011;19763;55.798;37.782;2022-09-03T06:41:07;2.33;;;2.10;;
33421;SDS011;19763;55.798;37.782;2022-09-03T06:43:47;3.55;;;1.80;;
33421;SDS011;19763;55.798;37.782;2022-09-03T06:46:14;4.10;;;2.00;;
33421;SDS011;19763;55.798;37.782;2022-09-03T06:48:41;2.10;;;1.75;;
33421;SDS011;19763;55.798;37.782;2022-09-03T06:51:17;3.22;;;1.73;;
33421;SDS011;19763;55.798;37.782;2022-09-03T06:53:45;3.13;;;1.20;;
33421;SDS011;19763;55.798;37.782;2022-09-03T06:56:19;3.22;;;1.80;;
33421;SDS011;19763;55.798;37.782;2022-09-03T06:58:55;4.25;;;1.50;;
33421;SDS011;19763;55.798;37.782;2022-09-03T07:01:26;3.75;;;1.30;;
33421;SDS011;19763;55.798;37.782;2022-09-03T07:03:55;3.67;;;1.67;;
33421;SDS011;19763;55.798;37.782;2022-09-03T07:06:30;4.15;;;1.33;;
33421;SDS011;19763;55.798;37.782;2022-09-03T07:08:57;2.35;;;1.40;;
33421;SDS011;19763;55.798;37.782;2022-09-03T07:11:27;3.45;;;1.60;;
33421;SDS011;19763;55.798;37.782;2022-09-03T07:13:56;3.05;;;2.60;;
33421;SDS011;19763;55.798;37.782;2022-09-03T07:16:26;3.17;;;1.90;;
33421;SDS011;19763;55.798;37.782;2022-09-03T07:18:53;1.83;;;1.60;;
33421;SDS011;19763;55.798;37.782;2022-09-03T07:21:27;2.17;;;1.50;;
33421;SDS011;19763;55.798;37.782;2022-09-03T07:23:54;4.18;;;1.60;;
33421;SDS011;19763;55.798;37.782;2022-09-03T07:26:22;2.08;;;1.67;;
33421;SDS011;19763;55.798;37.782;2022-09-03T07:28:52;3.60;;;1.83;;
33421;SDS011;19763;55.798;37.782;2022-09-03T07:31:19;2.60;;;1.40;;
33421;SDS011;19763;55.798;37.782;2022-09-03T07:33:59;2.50;;;1.60;;
33421;SDS011;19763;55.798;37.782;2022-09-03T07:36:29;5.18;;;1.88;;
33421;SDS011;19763;55.798;37.782;2022-09-03T07:38:56;4.30;;;1.60;;
33421;SDS011;19763;55.798;37.782;2022-09-03T07:41:22;2.58;;;1.50;;
33421;SDS011;19763;55.798;37.782;2022-09-03T07:43:50;1.67;;;1.58;;
33421;SDS011;19763;55.798;37.782;2022-09-03T07:46:17;3.15;;;1.90;;
33421;SDS011;19763;55.798;37.782;2022-09-03T07:48:47;3.53;;;1.92;;
33421;SDS011;19763;55.798;37.782;2022-09-03T07:51:23;3.95;;;1.77;;
33421;SDS011;19763;55.798;37.782;2022-09-03T07:53:51;2.70;;;1.45;;
33421;SDS011;19763;55.798;37.782;2022-09-03T07:56:18;2.97;;;1.63;;
33421;SDS011;19763;55.798;37.782;2022-09-03T07:58:44;3.00;;;1.55;;
33421;SDS011;19763;55.798;37.782;2022-09-03T08:01:15;3.60;;;1.40;;
33421;SDS011;19763;55.798;37.782;2022-09-03T08:03:43;1.77;;;1.20;;
33421;SDS011;19763;55.798;37.782;2022-09-03T08:06:13;1.23;;;1.15;;
33421;SDS011;19763;55.798;37.782;2022-09-03T08:08:41;3.30;;;1.15;;
33421;SDS011;19763;55.798;37.782;2022-09-03T08:13:38;1.63;;;1.45;;
33421;SDS011;19763;55.798;37.782;2022-09-03T08:16:05;2.50;;;1.63;;
33421;SDS011;19763;55.798;37.782;2022-09-03T08:18:35;1.52;;;1.23;;
33421;SDS011;19763;55.798;37.782;2022-09-03T08:21:13;4.35;;;1.65;;
33421;SDS011;19763;55.798;37.782;2022-09-03T08:23:47;2.97;;;1.20;;
33421;SDS011;19763;55.798;37.782;2022-09-03T08:26:15;1.63;;;1.30;;
33421;SDS011;19763;55.798;37.782;2022-09-03T08:28:42;4.30;;;1.70;;
33421;SDS011;19763;55.798;37.782;2022-09-03T08:31:18;5.70;;;1.88;;
33421;SDS011;19763;55.798;37.782;2022-09-03T08:33:46;1.60;;;1.50;;
33421;SDS011;19763;55.798;37.782;2022-09-03T08:36:18;4.40;;;1.70;;
33421;SDS011;19763;55.798;37.782;2022-09-03T08:38:49;2.65;;;1.58;;
33421;SDS011;19763;55.798;37.782;2022-09-03T08:47:15;2.58;;;1.45;;
33421;SDS011;19763;55.798;37.782;2022-09-03T08:49:33;4.47;;;1.17;;
33421;SDS011;19763;55.798;37.782;2022-09-03T08:54:48;1.40;;;1.27;;
33421;SDS011;19763;55.798;37.782;2022-09-03T08:57:18;3.80;;;1.40;;
33421;SDS011;19763;55.798;37.782;2022-09-03T08:59:45;2.72;;;1.15;;
33421;SDS011;19763;55.798;37.782;2022-09-03T09:02:25;3.28;;;1.20;;
33421;SDS011;19763;55.798;37.782;2022-09-03T09:08:15;2.35;;;1.10;;
33421;SDS011;19763;55.798;37.782;2022-09-03T09:14:00;1.63;;;1.23;;
33421;SDS011;19763;55.798;37.782;2022-09-03T09:16:33;2.85;;;1.10;;
33421;SDS011;19763;55.798;37.782;2022-09-03T09:22:01;1.80;;;1.23;;
33421;SDS011;19763;55.798;37.782;2022-09-03T09:24:37;1.95;;;1.23;;
33421;SDS011;19763;55.798;37.782;2022-09-03T09:27:07;5.60;;;1.60;;
33421;SDS011;19763;55.798;37.782;2022-09-03T09:29:36;3.70;;;1.65;;
33421;SDS011;19763;55.798;37.782;2022-09-03T09:32:03;1.70;;;1.20;;
33421;SDS011;19763;55.798;37.782;2022-09-03T09:34:36;3.28;;;1.30;;
33421;SDS011;19763;55.798;37.782;2022-09-03T09:37:05;0.80;;;0.80;;
33421;SDS011;19763;55.798;37.782;2022-09-03T09:39:34;2.80;;;1.02;;
33421;SDS011;19763;55.798;37.782;2022-09-03T09:42:10;2.35;;;1.23;;
33421;SDS011;19763;55.798;37.782;2022-09-03T09:44:37;2.33;;;1.10;;
33421;SDS011;19763;55.798;37.782;2022-09-03T09:47:06;2.35;;;1.20;;
33421;SDS011;19763;55.798;37.782;2022-09-03T09:49:36;1.20;;;1.10;;
33421;SDS011;19763;55.798;37.782;2022-09-03T09:52:15;1.17;;;1.08;;
33421;SDS011;19763;55.798;37.782;2022-09-03T09:54:42;2.47;;;1.10;;
33421;SDS011;19763;55.798;37.782;2022-09-03T09:57:16;3.13;;;1.23;;
33421;SDS011;19763;55.798;37.782;2022-09-03T09:59:47;2.65;;;1.20;;
33421;SDS011;19763;55.798;37.782;2022-09-03T10:02:24;1.48;;;1.08;;
33421;SDS011;19763;55.798;37.782;2022-09-03T10:04:58;1.67;;;0.98;;
33421;SDS011;19763;55.798;37.782;2022-09-03T10:07:36;3.17;;;1.20;;
33421;SDS011;19763;55.798;37.782;2022-09-03T10:12:31;3.63;;;1.00;;
33421;SDS011;19763;55.798;37.782;2022-09-03T10:15:02;1.63;;;1.05;;
33421;SDS011;19763;55.798;37.782;2022-09-03T10:20:21;2.28;;;1.45;;
33421;SDS011;19763;55.798;37.782;2022-09-03T10:25:52;2.35;;;0.98;;
33421;SDS011;19763;55.798;37.782;2022-09-03T10:28:21;0.85;;;0.85;;
33421;SDS011;19763;55.798;37.782;2022-09-03T10:34:21;3.60;;;1.17;;
33421;SDS011;19763;55.798;37.782;2022-09-03T10:41:38;4.53;;;1.00;;
33421;SDS011;19763;55.798;37.782;2022-09-03T10:52:19;1.58;;;1.20;;
33421;SDS011;19763;55.798;37.782;2022-09-03T10:54:52;3.22;;;1.20;;
33421;SDS011;19763;55.798;37.782;2022-09-03T11:00:24;2.97;;;1.00;;
33421;SDS011;19763;55.798;37.782;2022-09-03T11:05:39;2.00;;;1.10;;
33421;SDS011;19763;55.798;37.782;2022-09-03T11:08:16;2.28;;;1.10;;
33421;SDS011;19763;55.798;37.782;2022-09-03T11:10:59;1.90;;;1.00;;
33421;SDS011;19763;55.798;37.782;2022-09-03T11:13:42;2.53;;;1.10;;
33421;SDS011;19763;55.798;37.782;2022-09-03T11:16:22;1.55;;;1.20;;
33421;SDS011;19763;55.798;37.782;2022-09-03T11:21:31;2.33;;;1.00;;
33421;SDS011;19763;55.798;37.782;2022-09-03T11:26:32;5.68;;;1.10;;
33421;SDS011;19763;55.798;37.782;2022-09-03T11:29:02;5.47;;;1.30;;
33421;SDS011;19763;55.798;37.782;2022-09-03T11:32:14;3.13;;;1.00;;
33421;SDS011;19763;55.798;37.782;2022-09-03T11:34:49;1.42;;;1.00;;
33421;SDS011;19763;55.798;37.782;2022-09-03T11:37:18;3.47;;;1.13;;
33421;SDS011;19763;55.798;37.782;2022-09-03T11:39:51;3.92;;;1.40;;
33421;SDS011;19763;55.798;37.782;2022-09-03T11:42:31;1.83;;;1.20;;
33421;SDS011;19763;55.798;37.782;2022-09-03T11:47:51;1.10;;;1.00;;
33421;SDS011;19763;55.798;37.782;2022-09-03T11:52:45;3.65;;;1.20;;
33421;SDS011;19763;55.798;37.782;2022-09-03T11:55:12;1.70;;;1.13;;
33421;SDS011;19763;55.798;37.782;2022-09-03T11:57:49;1.33;;;1.10;;
33421;SDS011;19763;55.798;37.782;2022-09-03T12:00:15;8.07;;;3.17;;
33421;SDS011;19763;55.798;37.782;2022-09-03T12:02:47;2.63;;;1.15;;
33421;SDS011;19763;55.798;37.782;2022-09-03T12:22:16;2.92;;;1.13;;
33421;SDS011;19763;55.798;37.782;2022-09-03T12:24:44;3.08;;;1.00;;
33421;SDS011;19763;55.798;37.782;2022-09-03T12:27:20;3.42;;;1.30;;
33421;SDS011;19763;55.798;37.782;2022-09-03T12:29:52;8.45;;;2.30;;
33421;SDS011;19763;55.798;37.782;2022-09-03T12:32:29;2.70;;;1.30;;
33421;SDS011;19763;55.798;37.782;2022-09-03T12:35:12;0.98;;;0.98;;
33421;SDS011;19763;55.798;37.782;2022-09-03T12:37:40;2.85;;;1.00;;
33421;SDS011;19763;55.798;37.782;2022-09-03T12:40:16;1.10;;;1.00;;
33421;SDS011;19763;55.798;37.782;2022-09-03T12:42:53;1.60;;;1.08;;
33421;SDS011;19763;55.798;37.782;2022-09-03T12:45:23;4.97;;;0.98;;
33421;SDS011;19763;55.798;37.782;2022-09-03T12:47:49;1.55;;;1.30;;
33421;SDS011;19763;55.798;37.782;2022-09-03T12:50:17;1.90;;;1.00;;
33421;SDS011;19763;55.798;37.782;2022-09-03T12:52:46;2.10;;;1.10;;
33421;SDS011;19763;55.798;37.782;2022-09-03T12:57:48;7.28;;;1.30;;
33421;SDS011;19763;55.798;37.782;2022-09-03T13:00:39;3.25;;;1.17;;
33421;SDS011;19763;55.798;37.782;2022-09-03T13:03:14;1.38;;;0.85;;
33421;SDS011;19763;55.798;37.782;2022-09-03T13:05:52;1.15;;;1.05;;
33421;SDS011;19763;55.798;37.782;2022-09-03T13:08:25;0.93;;;0.93;;
33421;SDS011;19763;55.798;37.782;2022-09-03T13:10:55;1.03;;;0.97;;
33421;SDS011;19763;55.798;37.782;2022-09-03T13:13:24;1.60;;;1.00;;
33421;SDS011;19763;55.798;37.782;2022-09-03T13:18:38;3.10;;;1.10;;
33421;SDS011;19763;55.798;37.782;2022-09-03T13:34:57;2.45;;;1.08;;
33421;SDS011;19763;55.798;37.782;2022-09-03T13:37:34;3.10;;;1.10;;
33421;SDS011;19763;55.798;37.782;2022-09-03T13:42:54;2.00;;;1.20;;
33421;SDS011;19763;55.798;37.782;2022-09-03T13:45:28;1.83;;;1.20;;
33421;SDS011;19763;55.798;37.782;2022-09-03T13:48:14;1.20;;;1.10;;
33421;SDS011;19763;55.798;37.782;2022-09-03T13:51:15;1.63;;;1.30;;
33421;SDS011;19763;55.798;37.782;2022-09-03T14:02:26;3.20;;;1.30;;
33421;SDS011;19763;55.798;37.782;2022-09-03T14:13:13;3.92;;;1.17;;
33421;SDS011;19763;55.798;37.782;2022-09-03T14:15:47;1.45;;;0.93;;
33421;SDS011;19763;55.798;37.782;2022-09-03T14:18:39;1.42;;;1.00;;
33421;SDS011;19763;55.798;37.782;2022-09-03T14:26:36;2.30;;;1.55;;
33421;SDS011;19763;55.798;37.782;2022-09-03T14:29:03;5.95;;;1.45;;
33421;SDS011;19763;55.798;37.782;2022-09-03T14:37:22;3.50;;;1.52;;
33421;SDS011;19763;55.798;37.782;2022-09-03T14:42:51;3.42;;;1.50;;
33421;SDS011;19763;55.798;37.782;2022-09-03T15:04:49;6.22;;;1.60;;
33421;SDS011;19763;55.798;37.782;2022-09-03T15:07:28;2.63;;;1.80;;
33421;SDS011;19763;55.798;37.782;2022-09-03T15:12:51;3.92;;;1.58;;
33421;SDS011;19763;55.798;37.782;2022-09-03T15:15:20;3.05;;;1.70;;
33421;SDS011;19763;55.798;37.782;2022-09-03T15:23:11;4.95;;;1.50;;
33421;SDS011;19763;55.798;37.782;2022-09-03T15:36:48;3.42;;;1.48;;
33421;SDS011;19763;55.798;37.782;2022-09-03T15:39:21;3.53;;;1.50;;
33421;SDS011;19763;55.798;37.782;2022-09-03T15:41:58;3.10;;;1.20;;
33421;SDS011;19763;55.798;37.782;2022-09-03T15:44:37;2.70;;;1.27;;
33421;SDS011;19763;55.798;37.782;2022-09-03T15:47:13;3.03;;;1.60;;
33421;SDS011;19763;55.798;37.782;2022-09-03T15:52:30;2.33;;;1.30;;
33421;SDS011;19763;55.798;37.782;2022-09-03T15:55:22;7.55;;;1.75;;
33421;SDS011;19763;55.798;37.782;2022-09-03T16:00:38;3.22;;;1.55;;
33421;SDS011;19763;55.798;37.782;2022-09-03T16:03:16;4.18;;;1.60;;
33421;SDS011;19763;55.798;37.782;2022-09-03T16:05:56;3.70;;;1.55;;
33421;SDS011;19763;55.798;37.782;2022-09-03T16:08:39;4.60;;;1.60;;
33421;SDS011;19763;55.798;37.782;2022-09-03T16:14:14;4.22;;;2.40;;
33421;SDS011;19763;55.798;37.782;2022-09-03T16:19:37;2.60;;;1.90;;
33421;SDS011;19763;55.798;37.782;2022-09-03T16:25:02;5.10;;;2.38;;
33421;SDS011;19763;55.798;37.782;2022-09-03T16:32:40;5.50;;;2.70;;
33421;SDS011;19763;55.798;37.782;2022-09-03T16:35:14;8.38;;;4.53;;
33421;SDS011;19763;55.798;37.782;2022-09-03T16:51:31;8.50;;;3.13;;
33421;SDS011;19763;55.798;37.782;2022-09-03T17:05:12;4.18;;;1.75;;
33421;SDS011;19763;55.798;37.782;2022-09-03T17:18:46;6.55;;;2.75;;
33421;SDS011;19763;55.798;37.782;2022-09-03T17:27:00;5.25;;;2.38;;
33421;SDS011;19763;55.798;37.782;2022-09-03T17:44:07;6.70;;;3.00;;
33421;SDS011;19763;55.798;37.782;2022-09-03T17:46:35;4.32;;;2.05;;
33421;SDS011;19763;55.798;37.782;2022-09-03T17:49:13;4.32;;;1.98;;
33421;SDS011;19763;55.798;37.782;2022-09-03T17:54:44;3.72;;;1.75;;
33421;SDS011;19763;55.798;37.782;2022-09-03T17:59:55;2.28;;;1.63;;
33421;SDS011;19763;55.798;37.782;2022-09-03T18:08:11;3.47;;;2.00;;
33421;SDS011;19763;55.798;37.782;2022-09-03T18:16:25;3.28;;;2.10;;
33421;SDS011;19763;55.798;37.782;2022-09-03T18:18:57;2.45;;;2.10;;
33421;SDS011;19763;55.798;37.782;2022-09-03T18:21:24;2.30;;;1.90;;
33421;SDS011;19763;55.798;37.782;2022-09-03T18:27:11;3.20;;;1.83;;
33421;SDS011;19763;55.798;37.782;2022-09-03T18:30:05;2.63;;;2.10;;
33421;SDS011;19763;55.798;37.782;2022-09-03T18:32:51;2.72;;;2.10;;
33421;SDS011;19763;55.798;37.782;2022-09-03T18:35:36;3.88;;;2.03;;
33421;SDS011;19763;55.798;37.782;2022-09-03T18:38:25;4.97;;;2.47;;
33421;SDS011;19763;55.798;37.782;2022-09-03T18:44:20;3.95;;;2.10;;
33421;SDS011;19763;55.798;37.782;2022-09-03T18:50:28;5.60;;;2.75;;
33421;SDS011;19763;55.798;37.782;2022-09-03T19:00:10;5.50;;;2.88;;
33421;SDS011;19763;55.798;37.782;2022-09-03T19:05:29;5.78;;;2.63;;
33421;SDS011;19763;55.798;37.782;2022-09-03T19:08:42;7.25;;;3.15;;
33421;SDS011;19763;55.798;37.782;2022-09-03T19:20:38;6.65;;;3.45;;
33421;SDS011;19763;55.798;37.782;2022-09-03T19:23:28;3.85;;;3.00;;
33421;SDS011;19763;55.798;37.782;2022-09-03T19:26:17;5.30;;;3.45;;
33421;SDS011;19763;55.798;37.782;2022-09-03T19:32:28;3.80;;;2.85;;
33421;SDS011;19763;55.798;37.782;2022-09-03T19:35:25;6.13;;;3.85;;
33421;SDS011;19763;55.798;37.782;2022-09-03T19:41:44;5.15;;;3.28;;
33421;SDS011;19763;55.798;37.782;2022-09-03T19:44:50;3.85;;;3.13;;
33421;SDS011;19763;55.798;37.782;2022-09-03T19:51:14;7.53;;;3.60;;
33421;SDS011;19763;55.798;37.782;2022-09-03T19:54:01;4.53;;;3.63;;
33421;SDS011;19763;55.798;37.782;2022-09-03T19:56:47;7.60;;;3.50;;
33421;SDS011;19763;55.798;37.782;2022-09-03T19:59:35;7.20;;;3.92;;
33421;SDS011;19763;55.798;37.782;2022-09-03T20:02:23;7.32;;;4.28;;
33421;SDS011;19763;55.798;37.782;2022-09-03T20:05:12;5.43;;;3.70;;
33421;SDS011;19763;55.798;37.782;2022-09-03T20:08:00;5.63;;;3.85;;
33421;SDS011;19763;55.798;37.782;2022-09-03T20:10:46;4.38;;;3.30;;
33421;SDS011;19763;55.798;37.782;2022-09-03T20:13:16;5.57;;;3.92;;
33421;SDS011;19763;55.798;37.782;2022-09-03T20:21:21;6.35;;;3.42;;
33421;SDS011;19763;55.798;37.782;2022-09-03T20:35:25;4.47;;;3.15;;
33421;SDS011;19763;55.798;37.782;2022-09-03T20:38:00;4.88;;;3.25;;
33421;SDS011;19763;55.798;37.782;2022-09-03T20:46:04;3.63;;;2.72;;
33421;SDS011;19763;55.798;37.782;2022-09-03T20:51:14;5.47;;;2.85;;
33421;SDS011;19763;55.798;37.782;2022-09-03T20:56:25;3.60;;;2.72;;
33421;SDS011;19763;55.798;37.782;2022-09-03T20:59:12;3.33;;;2.35;;
33421;SDS011;19763;55.798;37.782;2022-09-03T21:17:53;5.13;;;2.75;;
33421;SDS011;19763;55.798;37.782;2022-09-03T21:26:08;4.07;;;2.47;;
33421;SDS011;19763;55.798;37.782;2022-09-03T21:28:39;4.53;;;2.40;;
33421;SDS011;19763;55.798;37.782;2022-09-03T21:31:32;3.78;;;2.47;;
33421;SDS011;19763;55.798;37.782;2022-09-03T21:34:03;4.68;;;2.58;;
33421;SDS011;19763;55.798;37.782;2022-09-03T21:36:34;5.05;;;2.80;;
33421;SDS011;19763;55.798;37.782;2022-09-03T21:42:22;4.35;;;2.50;;
33421;SDS011;19763;55.798;37.782;2022-09-03T21:44:59;4.85;;;2.50;;
33421;SDS011;19763;55.798;37.782;2022-09-03T21:47:47;3.83;;;2.47;;
33421;SDS011;19763;55.798;37.782;2022-09-03T21:50:25;5.65;;;2.95;;
33421;SDS011;19763;55.798;37.782;2022-09-03T21:53:09;4.82;;;2.97;;
33421;SDS011;19763;55.798;37.782;2022-09-03T22:01:26;6.30;;;2.97;;
33421;SDS011;19763;55.798;37.782;2022-09-03T22:04:13;5.28;;;2.20;;